Huvudsida
METAR-TAF:

METAR-TAF

Flygplatser :

São Paulo-Congonhas flygplats

São Paulo, São Paulo, Brasilien

latitud: 23-37S, longitud: 046-39W, höjd: 803 m

Aktuellt väderrapport

Denna rapport gjordes för 1 timme och 8 minuter sedan, klockan 23:00 UTC
Vind 8 kt från sydost
Temperatur 18°C
Fuktighet 88%
Tryck 1020 hPa
Sikt 10 km eller mer
Spridda moln på en höjd av 400 ft
Mulet på en höjd av 700 ft

METAR: SBSP 182300Z 14008KT 9999 SCT004 OVC007 18/16 Q1020

Tid: 22:08 (00:08 UTC)

Väderprognos

Denna rapport gjordes för 2 timmar och 8 minuter sedan, klockan 22:00 UTC
Prognos gäller från 19 kl. 00 UTC till 19 kl. 12 UTC
Vind 10 kt från syd/sydost
Sikt 10 km eller mer
Mulet på en höjd av 800 ft
Blir
från 19 kl. 10 UTC till 19 kl. 12 UTC
Brutna moln på en höjd av 1500 ft

TAF: SBSP 182200Z 1900/1912 15010KT 9999 OVC008 TN16/1908Z TX18/1911Z BECMG 1910/1912 BKN015 RMK PGL

Aktuella väderrapporter och prognoser från 4000 flygplatser (METAR- och TAF-rapporter).

De tillgängliga stationerna syns som gula och röda prickar på kartan.

För musen över prickarna för att se namnen på stationerna.

Klicka sedan för att få väderrapporter och prognoser.

För att ändra kartan: Klicka på de gröna knapparna med ett svart kors på för att zooma in; den gröna knappen med ett streck på för att zooma ut; eller på de gröna pilarna för angränsande kartor.


METAR-TAF: